sensor_id;sensor_type;location;lat;lon;timestamp;temperature;humidity
39751;DHT22;37579;51.074;17.004;2024-03-02T00:02:13;24.60;61.00
39751;DHT22;37579;51.074;17.004;2024-03-02T00:04:39;24.50;61.10
39751;DHT22;37579;51.074;17.004;2024-03-02T00:07:06;24.50;60.80
39751;DHT22;37579;51.074;17.004;2024-03-02T00:09:33;24.50;61.30
39751;DHT22;37579;51.074;17.004;2024-03-02T00:12:00;24.40;61.30
39751;DHT22;37579;51.074;17.004;2024-03-02T00:14:29;24.50;61.50
39751;DHT22;37579;51.074;17.004;2024-03-02T00:16:55;24.50;61.50
39751;DHT22;37579;51.074;17.004;2024-03-02T00:19:22;24.40;61.50
39751;DHT22;37579;51.074;17.004;2024-03-02T00:21:48;24.40;61.50
39751;DHT22;37579;51.074;17.004;2024-03-02T00:24:34;24.40;61.50
39751;DHT22;37579;51.074;17.004;2024-03-02T00:27:01;24.40;61.50
39751;DHT22;37579;51.074;17.004;2024-03-02T00:29:29;24.50;61.50
39751;DHT22;37579;51.074;17.004;2024-03-02T00:31:55;24.40;61.40
39751;DHT22;37579;51.074;17.004;2024-03-02T00:34:21;24.50;61.40
39751;DHT22;37579;51.074;17.004;2024-03-02T00:36:47;24.40;61.30
39751;DHT22;37579;51.074;17.004;2024-03-02T00:39:15;24.50;61.30
39751;DHT22;37579;51.074;17.004;2024-03-02T00:41:42;24.50;61.20
39751;DHT22;37579;51.074;17.004;2024-03-02T00:44:12;24.50;61.20
39751;DHT22;37579;51.074;17.004;2024-03-02T00:46:42;24.50;61.10
39751;DHT22;37579;51.074;17.004;2024-03-02T00:51:50;24.50;61.10
39751;DHT22;37579;51.074;17.004;2024-03-02T00:54:20;24.50;61.10
39751;DHT22;37579;51.074;17.004;2024-03-02T00:56:47;24.50;61.10
39751;DHT22;37579;51.074;17.004;2024-03-02T00:59:13;24.50;61.10
39751;DHT22;37579;51.074;17.004;2024-03-02T01:01:39;24.50;61.00
39751;DHT22;37579;51.074;17.004;2024-03-02T01:04:04;24.50;60.90
39751;DHT22;37579;51.074;17.004;2024-03-02T01:06:31;24.50;60.90
39751;DHT22;37579;51.074;17.004;2024-03-02T01:08:56;24.50;60.90
39751;DHT22;37579;51.074;17.004;2024-03-02T01:11:22;24.50;60.90
39751;DHT22;37579;51.074;17.004;2024-03-02T01:13:48;24.50;60.90
39751;DHT22;37579;51.074;17.004;2024-03-02T01:16:14;24.50;60.80
39751;DHT22;37579;51.074;17.004;2024-03-02T01:18:41;24.50;60.80
39751;DHT22;37579;51.074;17.004;2024-03-02T01:21:08;24.50;60.50
39751;DHT22;37579;51.074;17.004;2024-03-02T01:23:33;24.50;60.60
39751;DHT22;37579;51.074;17.004;2024-03-02T01:25:59;24.60;60.60
39751;DHT22;37579;51.074;17.004;2024-03-02T01:28:25;24.60;60.50
39751;DHT22;37579;51.074;17.004;2024-03-02T01:30:51;24.60;60.40
39751;DHT22;37579;51.074;17.004;2024-03-02T01:33:17;24.60;60.50
39751;DHT22;37579;51.074;17.004;2024-03-02T01:35:43;24.50;60.50
39751;DHT22;37579;51.074;17.004;2024-03-02T01:38:09;24.60;60.40
39751;DHT22;37579;51.074;17.004;2024-03-02T01:40:36;24.50;60.40
39751;DHT22;37579;51.074;17.004;2024-03-02T01:43:04;24.60;60.50
39751;DHT22;37579;51.074;17.004;2024-03-02T01:45:30;24.50;60.30
39751;DHT22;37579;51.074;17.004;2024-03-02T01:47:56;24.50;60.40
39751;DHT22;37579;51.074;17.004;2024-03-02T01:50:29;24.50;60.30
39751;DHT22;37579;51.074;17.004;2024-03-02T01:52:58;24.50;60.30
39751;DHT22;37579;51.074;17.004;2024-03-02T01:55:24;24.50;60.40
39751;DHT22;37579;51.074;17.004;2024-03-02T01:57:51;24.50;60.40
39751;DHT22;37579;51.074;17.004;2024-03-02T02:00:18;24.50;60.50
39751;DHT22;37579;51.074;17.004;2024-03-02T02:02:45;24.50;60.40
39751;DHT22;37579;51.074;17.004;2024-03-02T02:05:11;24.50;60.40
39751;DHT22;37579;51.074;17.004;2024-03-02T02:07:37;24.50;60.50
39751;DHT22;37579;51.074;17.004;2024-03-02T02:10:03;24.40;60.40
39751;DHT22;37579;51.074;17.004;2024-03-02T02:12:29;24.50;60.40
39751;DHT22;37579;51.074;17.004;2024-03-02T02:14:54;24.50;60.40
39751;DHT22;37579;51.074;17.004;2024-03-02T02:17:20;24.50;60.30
39751;DHT22;37579;51.074;17.004;2024-03-02T02:19:46;24.40;60.40
39751;DHT22;37579;51.074;17.004;2024-03-02T02:22:12;24.40;60.40
39751;DHT22;37579;51.074;17.004;2024-03-02T02:24:41;24.40;60.70
39751;DHT22;37579;51.074;17.004;2024-03-02T02:27:10;24.30;60.80
39751;DHT22;37579;51.074;17.004;2024-03-02T02:29:36;24.30;60.80
39751;DHT22;37579;51.074;17.004;2024-03-02T02:32:02;24.40;60.80
39751;DHT22;37579;51.074;17.004;2024-03-02T02:34:29;24.40;60.70
39751;DHT22;37579;51.074;17.004;2024-03-02T02:36:55;24.40;60.60
39751;DHT22;37579;51.074;17.004;2024-03-02T02:39:21;24.40;60.60
39751;DHT22;37579;51.074;17.004;2024-03-02T02:41:50;24.50;60.60
39751;DHT22;37579;51.074;17.004;2024-03-02T02:44:16;24.40;60.40
39751;DHT22;37579;51.074;17.004;2024-03-02T02:46:42;24.40;60.40
39751;DHT22;37579;51.074;17.004;2024-03-02T02:49:08;24.50;60.40
39751;DHT22;37579;51.074;17.004;2024-03-02T02:51:33;24.50;60.40
39751;DHT22;37579;51.074;17.004;2024-03-02T02:53:59;24.50;60.30
39751;DHT22;37579;51.074;17.004;2024-03-02T02:56:25;24.50;60.30
39751;DHT22;37579;51.074;17.004;2024-03-02T02:58:51;24.50;60.40
39751;DHT22;37579;51.074;17.004;2024-03-02T03:01:17;24.50;60.30
39751;DHT22;37579;51.074;17.004;2024-03-02T03:03:44;24.50;60.30
39751;DHT22;37579;51.074;17.004;2024-03-02T03:06:10;24.50;60.40
39751;DHT22;37579;51.074;17.004;2024-03-02T03:08:36;24.40;60.40
39751;DHT22;37579;51.074;17.004;2024-03-02T03:11:02;24.40;60.40
39751;DHT22;37579;51.074;17.004;2024-03-02T03:13:28;24.40;60.40
39751;DHT22;37579;51.074;17.004;2024-03-02T03:15:54;24.40;60.40
39751;DHT22;37579;51.074;17.004;2024-03-02T03:18:20;24.40;60.40
39751;DHT22;37579;51.074;17.004;2024-03-02T03:20:46;24.40;60.30
39751;DHT22;37579;51.074;17.004;2024-03-02T03:23:11;24.40;60.40
39751;DHT22;37579;51.074;17.004;2024-03-02T03:25:44;24.40;60.20
39751;DHT22;37579;51.074;17.004;2024-03-02T03:28:09;24.40;60.30
39751;DHT22;37579;51.074;17.004;2024-03-02T03:30:38;24.40;60.30
39751;DHT22;37579;51.074;17.004;2024-03-02T03:33:05;24.40;60.30
39751;DHT22;37579;51.074;17.004;2024-03-02T03:35:34;24.40;60.30
39751;DHT22;37579;51.074;17.004;2024-03-02T03:38:00;24.40;60.90
39751;DHT22;37579;51.074;17.004;2024-03-02T03:40:26;24.40;60.30
39751;DHT22;37579;51.074;17.004;2024-03-02T03:42:52;24.40;60.20
39751;DHT22;37579;51.074;17.004;2024-03-02T03:45:18;24.40;60.20
39751;DHT22;37579;51.074;17.004;2024-03-02T03:47:44;24.40;60.20
39751;DHT22;37579;51.074;17.004;2024-03-02T03:50:10;24.40;60.10
39751;DHT22;37579;51.074;17.004;2024-03-02T03:52:36;24.40;60.20
39751;DHT22;37579;51.074;17.004;2024-03-02T03:55:02;24.40;60.20
39751;DHT22;37579;51.074;17.004;2024-03-02T03:57:27;24.40;60.20
39751;DHT22;37579;51.074;17.004;2024-03-02T03:59:53;24.40;60.10
39751;DHT22;37579;51.074;17.004;2024-03-02T04:02:19;24.40;60.10
39751;DHT22;37579;51.074;17.004;2024-03-02T04:04:45;24.40;60.10
39751;DHT22;37579;51.074;17.004;2024-03-02T04:07:11;24.40;60.00
39751;DHT22;37579;51.074;17.004;2024-03-02T04:09:37;24.40;60.00
39751;DHT22;37579;51.074;17.004;2024-03-02T04:12:03;24.40;60.00
39751;DHT22;37579;51.074;17.004;2024-03-02T04:14:29;24.40;60.00
39751;DHT22;37579;51.074;17.004;2024-03-02T04:16:54;24.40;60.00
39751;DHT22;37579;51.074;17.004;2024-03-02T04:19:21;24.40;60.00
39751;DHT22;37579;51.074;17.004;2024-03-02T04:21:47;24.40;60.00
39751;DHT22;37579;51.074;17.004;2024-03-02T04:24:12;24.40;60.00
39751;DHT22;37579;51.074;17.004;2024-03-02T04:26:38;24.40;59.90
39751;DHT22;37579;51.074;17.004;2024-03-02T04:29:04;24.40;59.90
39751;DHT22;37579;51.074;17.004;2024-03-02T04:31:29;24.40;59.90
39751;DHT22;37579;51.074;17.004;2024-03-02T04:33:55;24.40;59.80
39751;DHT22;37579;51.074;17.004;2024-03-02T04:36:21;24.40;59.70
39751;DHT22;37579;51.074;17.004;2024-03-02T04:38:47;24.40;60.40
39751;DHT22;37579;51.074;17.004;2024-03-02T04:41:13;24.40;59.80
39751;DHT22;37579;51.074;17.004;2024-03-02T04:43:39;24.40;59.80
39751;DHT22;37579;51.074;17.004;2024-03-02T04:46:05;24.40;59.90
39751;DHT22;37579;51.074;17.004;2024-03-02T04:48:32;24.40;60.00
39751;DHT22;37579;51.074;17.004;2024-03-02T04:50:58;24.30;60.60
39751;DHT22;37579;51.074;17.004;2024-03-02T04:53:24;24.30;60.00
39751;DHT22;37579;51.074;17.004;2024-03-02T04:55:49;24.40;60.00
39751;DHT22;37579;51.074;17.004;2024-03-02T04:58:21;24.30;59.90
39751;DHT22;37579;51.074;17.004;2024-03-02T05:00:47;24.40;59.90
39751;DHT22;37579;51.074;17.004;2024-03-02T05:03:13;24.40;59.90
39751;DHT22;37579;51.074;17.004;2024-03-02T05:05:39;24.40;59.90
39751;DHT22;37579;51.074;17.004;2024-03-02T05:08:05;24.40;59.80
39751;DHT22;37579;51.074;17.004;2024-03-02T05:10:31;24.40;59.80
39751;DHT22;37579;51.074;17.004;2024-03-02T05:12:56;24.40;59.80
39751;DHT22;37579;51.074;17.004;2024-03-02T05:15:22;24.40;59.70
39751;DHT22;37579;51.074;17.004;2024-03-02T05:17:48;24.40;59.70
39751;DHT22;37579;51.074;17.004;2024-03-02T05:20:14;24.40;59.70
39751;DHT22;37579;51.074;17.004;2024-03-02T05:22:40;24.40;59.60
39751;DHT22;37579;51.074;17.004;2024-03-02T05:25:06;24.40;59.70
39751;DHT22;37579;51.074;17.004;2024-03-02T05:27:33;24.30;59.60
39751;DHT22;37579;51.074;17.004;2024-03-02T05:29:59;24.40;59.70
39751;DHT22;37579;51.074;17.004;2024-03-02T05:32:25;24.40;59.60
39751;DHT22;37579;51.074;17.004;2024-03-02T05:34:51;24.40;59.60
39751;DHT22;37579;51.074;17.004;2024-03-02T05:37:17;24.40;59.50
39751;DHT22;37579;51.074;17.004;2024-03-02T05:39:43;24.40;59.50
39751;DHT22;37579;51.074;17.004;2024-03-02T05:42:09;24.40;59.50
39751;DHT22;37579;51.074;17.004;2024-03-02T05:44:38;24.40;59.50
39751;DHT22;37579;51.074;17.004;2024-03-02T05:47:04;24.40;59.50
39751;DHT22;37579;51.074;17.004;2024-03-02T05:49:30;24.40;59.50
39751;DHT22;37579;51.074;17.004;2024-03-02T05:51:56;24.40;59.40
39751;DHT22;37579;51.074;17.004;2024-03-02T05:54:22;24.40;59.40
39751;DHT22;37579;51.074;17.004;2024-03-02T05:56:48;24.40;59.40
39751;DHT22;37579;51.074;17.004;2024-03-02T05:59:13;24.40;59.30
39751;DHT22;37579;51.074;17.004;2024-03-02T06:01:40;24.40;59.30
39751;DHT22;37579;51.074;17.004;2024-03-02T06:04:06;24.40;59.20
39751;DHT22;37579;51.074;17.004;2024-03-02T06:06:33;24.40;59.30
39751;DHT22;37579;51.074;17.004;2024-03-02T06:09:02;24.50;59.30
39751;DHT22;37579;51.074;17.004;2024-03-02T06:11:31;24.50;59.40
39751;DHT22;37579;51.074;17.004;2024-03-02T06:13:56;24.50;59.50
39751;DHT22;37579;51.074;17.004;2024-03-02T06:16:22;24.60;59.40
39751;DHT22;37579;51.074;17.004;2024-03-02T06:18:48;24.60;59.30
39751;DHT22;37579;51.074;17.004;2024-03-02T06:21:14;24.60;59.20
39751;DHT22;37579;51.074;17.004;2024-03-02T06:23:40;24.60;59.20
39751;DHT22;37579;51.074;17.004;2024-03-02T06:26:05;24.70;59.10
39751;DHT22;37579;51.074;17.004;2024-03-02T06:28:31;24.70;59.10
39751;DHT22;37579;51.074;17.004;2024-03-02T06:30:57;24.70;59.00
39751;DHT22;37579;51.074;17.004;2024-03-02T06:33:23;24.70;59.10
39751;DHT22;37579;51.074;17.004;2024-03-02T06:35:48;24.70;59.10
39751;DHT22;37579;51.074;17.004;2024-03-02T06:38:14;24.70;59.20
39751;DHT22;37579;51.074;17.004;2024-03-02T06:40:40;24.70;59.20
39751;DHT22;37579;51.074;17.004;2024-03-02T06:43:06;24.70;59.20
39751;DHT22;37579;51.074;17.004;2024-03-02T06:45:32;24.70;59.20
39751;DHT22;37579;51.074;17.004;2024-03-02T06:48:00;24.70;59.10
39751;DHT22;37579;51.074;17.004;2024-03-02T06:50:25;24.70;59.00
39751;DHT22;37579;51.074;17.004;2024-03-02T06:52:52;24.80;59.10
39751;DHT22;37579;51.074;17.004;2024-03-02T06:55:18;24.80;59.00
39751;DHT22;37579;51.074;17.004;2024-03-02T06:57:44;24.70;59.10
39751;DHT22;37579;51.074;17.004;2024-03-02T07:00:10;24.80;59.10
39751;DHT22;37579;51.074;17.004;2024-03-02T07:02:36;24.70;59.10
39751;DHT22;37579;51.074;17.004;2024-03-02T07:05:02;24.70;59.10
39751;DHT22;37579;51.074;17.004;2024-03-02T07:07:29;24.80;59.10
39751;DHT22;37579;51.074;17.004;2024-03-02T07:09:55;24.80;59.10
39751;DHT22;37579;51.074;17.004;2024-03-02T07:12:20;24.80;59.10
39751;DHT22;37579;51.074;17.004;2024-03-02T07:14:46;24.80;59.00
39751;DHT22;37579;51.074;17.004;2024-03-02T07:17:21;24.80;59.10
39751;DHT22;37579;51.074;17.004;2024-03-02T07:19:46;24.80;58.90
39751;DHT22;37579;51.074;17.004;2024-03-02T07:22:13;24.90;58.80
39751;DHT22;37579;51.074;17.004;2024-03-02T07:24:42;25.00;58.60
39751;DHT22;37579;51.074;17.004;2024-03-02T07:27:09;25.10;58.40
39751;DHT22;37579;51.074;17.004;2024-03-02T07:29:36;25.10;58.40
39751;DHT22;37579;51.074;17.004;2024-03-02T07:32:01;25.20;58.40
39751;DHT22;37579;51.074;17.004;2024-03-02T07:34:27;25.20;58.50
39751;DHT22;37579;51.074;17.004;2024-03-02T07:36:53;25.20;58.60
39751;DHT22;37579;51.074;17.004;2024-03-02T07:39:19;25.20;58.50
39751;DHT22;37579;51.074;17.004;2024-03-02T07:41:45;25.20;58.50
39751;DHT22;37579;51.074;17.004;2024-03-02T07:44:12;25.20;58.60
39751;DHT22;37579;51.074;17.004;2024-03-02T07:46:43;25.20;58.60
39751;DHT22;37579;51.074;17.004;2024-03-02T07:49:10;25.20;58.80
39751;DHT22;37579;51.074;17.004;2024-03-02T07:51:36;25.30;58.70
39751;DHT22;37579;51.074;17.004;2024-03-02T07:54:04;25.40;58.60
39751;DHT22;37579;51.074;17.004;2024-03-02T07:56:30;25.40;58.50
39751;DHT22;37579;51.074;17.004;2024-03-02T07:58:56;25.40;58.60
39751;DHT22;37579;51.074;17.004;2024-03-02T08:01:30;25.40;58.60
39751;DHT22;37579;51.074;17.004;2024-03-02T08:04:01;25.40;58.70
39751;DHT22;37579;51.074;17.004;2024-03-02T08:06:27;25.40;58.80
39751;DHT22;37579;51.074;17.004;2024-03-02T08:09:00;25.40;58.70
39751;DHT22;37579;51.074;17.004;2024-03-02T08:11:26;25.40;58.90
39751;DHT22;37579;51.074;17.004;2024-03-02T08:13:56;25.40;58.90
39751;DHT22;37579;51.074;17.004;2024-03-02T08:16:23;25.30;59.10
39751;DHT22;37579;51.074;17.004;2024-03-02T08:18:52;25.30;59.10
39751;DHT22;37579;51.074;17.004;2024-03-02T08:21:18;25.30;59.20
39751;DHT22;37579;51.074;17.004;2024-03-02T08:23:44;25.30;59.10
39751;DHT22;37579;51.074;17.004;2024-03-02T08:26:10;25.30;59.20
39751;DHT22;37579;51.074;17.004;2024-03-02T08:28:36;25.30;59.30
39751;DHT22;37579;51.074;17.004;2024-03-02T08:31:03;25.20;59.40
39751;DHT22;37579;51.074;17.004;2024-03-02T08:33:29;25.30;59.30
39751;DHT22;37579;51.074;17.004;2024-03-02T08:35:56;25.20;59.50
39751;DHT22;37579;51.074;17.004;2024-03-02T08:38:22;25.20;59.70
39751;DHT22;37579;51.074;17.004;2024-03-02T08:40:48;25.20;59.70
39751;DHT22;37579;51.074;17.004;2024-03-02T08:43:14;25.20;59.70
39751;DHT22;37579;51.074;17.004;2024-03-02T08:45:41;25.20;59.60
39751;DHT22;37579;51.074;17.004;2024-03-02T08:48:10;25.20;59.70
39751;DHT22;37579;51.074;17.004;2024-03-02T08:50:36;25.20;59.80
39751;DHT22;37579;51.074;17.004;2024-03-02T08:53:03;25.10;59.80
39751;DHT22;37579;51.074;17.004;2024-03-02T08:55:29;25.10;59.80
39751;DHT22;37579;51.074;17.004;2024-03-02T08:57:55;25.10;60.00
39751;DHT22;37579;51.074;17.004;2024-03-02T09:00:22;25.00;60.00
39751;DHT22;37579;51.074;17.004;2024-03-02T09:02:48;25.00;60.00
39751;DHT22;37579;51.074;17.004;2024-03-02T09:05:14;25.00;60.00
39751;DHT22;37579;51.074;17.004;2024-03-02T09:07:40;24.90;60.20
39751;DHT22;37579;51.074;17.004;2024-03-02T09:10:06;25.00;60.20
39751;DHT22;37579;51.074;17.004;2024-03-02T09:12:32;25.00;60.00
39751;DHT22;37579;51.074;17.004;2024-03-02T09:15:02;25.00;59.80
39751;DHT22;37579;51.074;17.004;2024-03-02T09:17:31;25.10;59.80
39751;DHT22;37579;51.074;17.004;2024-03-02T09:19:57;25.20;59.60
39751;DHT22;37579;51.074;17.004;2024-03-02T09:22:23;25.20;59.60
39751;DHT22;37579;51.074;17.004;2024-03-02T09:24:49;25.20;59.90
39751;DHT22;37579;51.074;17.004;2024-03-02T09:27:14;25.20;59.60
39751;DHT22;37579;51.074;17.004;2024-03-02T09:29:40;25.30;59.60
39751;DHT22;37579;51.074;17.004;2024-03-02T09:32:07;25.40;59.70
39751;DHT22;37579;51.074;17.004;2024-03-02T09:34:34;25.40;59.70
39751;DHT22;37579;51.074;17.004;2024-03-02T09:36:59;25.40;59.70
39751;DHT22;37579;51.074;17.004;2024-03-02T09:39:25;25.40;59.70
39751;DHT22;37579;51.074;17.004;2024-03-02T09:41:51;25.40;59.70
39751;DHT22;37579;51.074;17.004;2024-03-02T09:44:18;25.40;59.70
39751;DHT22;37579;51.074;17.004;2024-03-02T09:46:49;25.40;59.80
39751;DHT22;37579;51.074;17.004;2024-03-02T09:49:15;25.50;60.60
39751;DHT22;37579;51.074;17.004;2024-03-02T09:51:40;25.50;60.00
39751;DHT22;37579;51.074;17.004;2024-03-02T09:54:12;25.50;60.10
39751;DHT22;37579;51.074;17.004;2024-03-02T09:56:38;25.50;60.00
39751;DHT22;37579;51.074;17.004;2024-03-02T09:59:04;25.50;60.10
39751;DHT22;37579;51.074;17.004;2024-03-02T10:01:30;25.50;60.10
39751;DHT22;37579;51.074;17.004;2024-03-02T10:03:59;25.50;60.20
39751;DHT22;37579;51.074;17.004;2024-03-02T10:06:28;25.50;59.80
39751;DHT22;37579;51.074;17.004;2024-03-02T10:08:55;25.40;59.20
39751;DHT22;37579;51.074;17.004;2024-03-02T10:11:35;25.50;59.60
39751;DHT22;37579;51.074;17.004;2024-03-02T10:14:06;25.60;59.60
39751;DHT22;37579;51.074;17.004;2024-03-02T10:16:41;25.60;59.70
39751;DHT22;37579;51.074;17.004;2024-03-02T10:19:25;25.60;59.40
39751;DHT22;37579;51.074;17.004;2024-03-02T10:21:53;25.60;59.30
39751;DHT22;37579;51.074;17.004;2024-03-02T10:24:20;25.60;59.20
39751;DHT22;37579;51.074;17.004;2024-03-02T10:26:47;25.60;59.30
39751;DHT22;37579;51.074;17.004;2024-03-02T10:29:13;25.60;59.20
39751;DHT22;37579;51.074;17.004;2024-03-02T10:31:40;25.60;59.20
39751;DHT22;37579;51.074;17.004;2024-03-02T10:34:07;25.60;59.10
39751;DHT22;37579;51.074;17.004;2024-03-02T10:36:33;25.60;59.20
39751;DHT22;37579;51.074;17.004;2024-03-02T10:39:05;25.70;59.40
39751;DHT22;37579;51.074;17.004;2024-03-02T10:41:33;25.70;59.10
39751;DHT22;37579;51.074;17.004;2024-03-02T10:44:05;25.70;58.90
39751;DHT22;37579;51.074;17.004;2024-03-02T10:46:32;25.70;59.00
39751;DHT22;37579;51.074;17.004;2024-03-02T10:49:02;25.80;59.50
39751;DHT22;37579;51.074;17.004;2024-03-02T10:51:31;25.70;59.00
39751;DHT22;37579;51.074;17.004;2024-03-02T10:53:58;25.80;58.50
39751;DHT22;37579;51.074;17.004;2024-03-02T10:56:32;25.80;58.70
39751;DHT22;37579;51.074;17.004;2024-03-02T11:01:48;24.50;46.50
39751;DHT22;37579;51.074;17.004;2024-03-02T11:04:18;24.30;46.50
39751;DHT22;37579;51.074;17.004;2024-03-02T11:06:49;24.20;46.40
39751;DHT22;37579;51.074;17.004;2024-03-02T11:09:19;24.00;47.10
39751;DHT22;37579;51.074;17.004;2024-03-02T11:11:52;23.60;46.20
39751;DHT22;37579;51.074;17.004;2024-03-02T11:14:24;24.10;49.50
39751;DHT22;37579;51.074;17.004;2024-03-02T11:16:51;24.50;50.10
39751;DHT22;37579;51.074;17.004;2024-03-02T11:19:18;24.80;50.50
39751;DHT22;37579;51.074;17.004;2024-03-02T11:21:44;24.90;50.90
39751;DHT22;37579;51.074;17.004;2024-03-02T11:26:53;25.10;51.90
39751;DHT22;37579;51.074;17.004;2024-03-02T11:32:16;25.20;52.60
39751;DHT22;37579;51.074;17.004;2024-03-02T11:34:43;25.20;52.70
39751;DHT22;37579;51.074;17.004;2024-03-02T11:37:19;25.30;53.00
39751;DHT22;37579;51.074;17.004;2024-03-02T11:39:51;25.20;53.00
39751;DHT22;37579;51.074;17.004;2024-03-02T11:42:17;25.20;52.90
39751;DHT22;37579;51.074;17.004;2024-03-02T11:44:45;25.20;53.50
39751;DHT22;37579;51.074;17.004;2024-03-02T11:47:13;25.20;53.50
39751;DHT22;37579;51.074;17.004;2024-03-02T11:49:45;25.30;53.40
39751;DHT22;37579;51.074;17.004;2024-03-02T11:52:12;25.30;53.60
39751;DHT22;37579;51.074;17.004;2024-03-02T11:54:40;25.30;53.80
39751;DHT22;37579;51.074;17.004;2024-03-02T11:57:08;25.30;53.80
39751;DHT22;37579;51.074;17.004;2024-03-02T11:59:34;25.30;53.80
39751;DHT22;37579;51.074;17.004;2024-03-02T12:02:01;25.20;53.70
39751;DHT22;37579;51.074;17.004;2024-03-02T12:04:29;25.20;53.00
39751;DHT22;37579;51.074;17.004;2024-03-02T12:06:56;25.20;53.50
39751;DHT22;37579;51.074;17.004;2024-03-02T12:09:22;25.30;53.60
39751;DHT22;37579;51.074;17.004;2024-03-02T12:11:48;25.30;53.60
39751;DHT22;37579;51.074;17.004;2024-03-02T12:14:26;25.20;53.50
39751;DHT22;37579;51.074;17.004;2024-03-02T12:16:54;25.30;54.50
39751;DHT22;37579;51.074;17.004;2024-03-02T12:19:21;25.40;53.80
39751;DHT22;37579;51.074;17.004;2024-03-02T12:21:47;25.40;54.20
39751;DHT22;37579;51.074;17.004;2024-03-02T12:24:13;25.30;54.10
39751;DHT22;37579;51.074;17.004;2024-03-02T12:26:38;25.20;54.10
39751;DHT22;37579;51.074;17.004;2024-03-02T12:29:05;25.20;54.20
39751;DHT22;37579;51.074;17.004;2024-03-02T12:31:30;25.20;54.40
39751;DHT22;37579;51.074;17.004;2024-03-02T12:33:58;25.20;54.60
39751;DHT22;37579;51.074;17.004;2024-03-02T12:36:24;25.10;54.60
39751;DHT22;37579;51.074;17.004;2024-03-02T12:38:53;25.10;54.70
39751;DHT22;37579;51.074;17.004;2024-03-02T12:41:18;25.10;54.40
39751;DHT22;37579;51.074;17.004;2024-03-02T12:43:44;25.20;54.60
39751;DHT22;37579;51.074;17.004;2024-03-02T12:46:11;25.20;54.80
39751;DHT22;37579;51.074;17.004;2024-03-02T12:48:37;25.20;54.80
39751;DHT22;37579;51.074;17.004;2024-03-02T12:51:04;25.20;54.80
39751;DHT22;37579;51.074;17.004;2024-03-02T12:53:31;25.20;54.90
39751;DHT22;37579;51.074;17.004;2024-03-02T12:55:57;25.20;55.20
39751;DHT22;37579;51.074;17.004;2024-03-02T12:58:22;25.10;55.30
39751;DHT22;37579;51.074;17.004;2024-03-02T13:00:48;25.10;55.40
39751;DHT22;37579;51.074;17.004;2024-03-02T13:03:14;25.10;55.40
39751;DHT22;37579;51.074;17.004;2024-03-02T13:05:48;25.10;55.50
39751;DHT22;37579;51.074;17.004;2024-03-02T13:08:15;25.10;55.60
39751;DHT22;37579;51.074;17.004;2024-03-02T13:10:41;25.10;55.70
39751;DHT22;37579;51.074;17.004;2024-03-02T13:13:07;25.00;55.60
39751;DHT22;37579;51.074;17.004;2024-03-02T13:15:33;25.00;55.70
39751;DHT22;37579;51.074;17.004;2024-03-02T13:18:00;25.00;55.70
39751;DHT22;37579;51.074;17.004;2024-03-02T13:20:33;25.00;55.70
39751;DHT22;37579;51.074;17.004;2024-03-02T13:23:00;25.00;55.70
39751;DHT22;37579;51.074;17.004;2024-03-02T13:25:25;25.00;55.80
39751;DHT22;37579;51.074;17.004;2024-03-02T13:27:52;25.00;55.80
39751;DHT22;37579;51.074;17.004;2024-03-02T13:30:18;25.00;55.90
39751;DHT22;37579;51.074;17.004;2024-03-02T13:32:44;25.00;55.80
39751;DHT22;37579;51.074;17.004;2024-03-02T13:35:11;25.00;56.00
39751;DHT22;37579;51.074;17.004;2024-03-02T13:37:38;25.00;56.00
39751;DHT22;37579;51.074;17.004;2024-03-02T13:40:04;25.10;56.10
39751;DHT22;37579;51.074;17.004;2024-03-02T13:42:31;25.10;56.20
39751;DHT22;37579;51.074;17.004;2024-03-02T13:44:56;25.10;56.10
39751;DHT22;37579;51.074;17.004;2024-03-02T13:47:22;23.60;46.10
39751;DHT22;37579;51.074;17.004;2024-03-02T13:49:48;22.30;47.70
39751;DHT22;37579;51.074;17.004;2024-03-02T13:52:15;22.10;48.60
39751;DHT22;37579;51.074;17.004;2024-03-02T13:54:43;22.60;49.80
39751;DHT22;37579;51.074;17.004;2024-03-02T13:57:11;23.10;49.90
39751;DHT22;37579;51.074;17.004;2024-03-02T13:59:38;23.50;50.00
39751;DHT22;37579;51.074;17.004;2024-03-02T14:02:07;23.80;49.90
39751;DHT22;37579;51.074;17.004;2024-03-02T14:04:34;23.90;50.00
39751;DHT22;37579;51.074;17.004;2024-03-02T14:07:01;24.00;50.30
39751;DHT22;37579;51.074;17.004;2024-03-02T14:09:27;24.00;50.60
39751;DHT22;37579;51.074;17.004;2024-03-02T14:11:53;24.10;51.60
39751;DHT22;37579;51.074;17.004;2024-03-02T14:14:20;24.10;51.10
39751;DHT22;37579;51.074;17.004;2024-03-02T14:16:45;24.10;51.30
39751;DHT22;37579;51.074;17.004;2024-03-02T14:19:12;24.20;51.40
39751;DHT22;37579;51.074;17.004;2024-03-02T14:21:41;24.20;51.60
39751;DHT22;37579;51.074;17.004;2024-03-02T14:24:06;24.30;51.80
39751;DHT22;37579;51.074;17.004;2024-03-02T14:26:33;24.30;51.90
39751;DHT22;37579;51.074;17.004;2024-03-02T14:28:59;24.40;52.10
39751;DHT22;37579;51.074;17.004;2024-03-02T14:31:28;24.40;52.20
39751;DHT22;37579;51.074;17.004;2024-03-02T14:33:54;24.40;52.40
39751;DHT22;37579;51.074;17.004;2024-03-02T14:36:20;24.50;52.60
39751;DHT22;37579;51.074;17.004;2024-03-02T14:38:46;24.40;53.00
39751;DHT22;37579;51.074;17.004;2024-03-02T14:41:12;24.50;53.10
39751;DHT22;37579;51.074;17.004;2024-03-02T14:43:39;24.50;53.40
39751;DHT22;37579;51.074;17.004;2024-03-02T14:46:05;24.50;53.60
39751;DHT22;37579;51.074;17.004;2024-03-02T14:48:31;24.50;53.80
39751;DHT22;37579;51.074;17.004;2024-03-02T14:50:57;24.50;54.00
39751;DHT22;37579;51.074;17.004;2024-03-02T14:53:23;24.50;54.20
39751;DHT22;37579;51.074;17.004;2024-03-02T14:55:49;24.50;54.30
39751;DHT22;37579;51.074;17.004;2024-03-02T14:58:15;24.50;54.40
39751;DHT22;37579;51.074;17.004;2024-03-02T15:00:41;24.50;54.60
39751;DHT22;37579;51.074;17.004;2024-03-02T15:03:07;24.50;54.70
39751;DHT22;37579;51.074;17.004;2024-03-02T15:05:35;24.60;54.80
39751;DHT22;37579;51.074;17.004;2024-03-02T15:08:01;24.60;54.90
39751;DHT22;37579;51.074;17.004;2024-03-02T15:10:30;24.60;54.90
39751;DHT22;37579;51.074;17.004;2024-03-02T15:12:56;24.60;54.80
39751;DHT22;37579;51.074;17.004;2024-03-02T15:15:22;24.70;54.90
39751;DHT22;37579;51.074;17.004;2024-03-02T15:17:47;24.60;54.80
39751;DHT22;37579;51.074;17.004;2024-03-02T15:20:13;24.70;54.90
39751;DHT22;37579;51.074;17.004;2024-03-02T15:22:39;24.70;54.90
39751;DHT22;37579;51.074;17.004;2024-03-02T15:25:06;24.70;55.20